sensor_id;sensor_type;location;lat;lon;timestamp;P1;durP1;ratioP1;P2;durP2;ratioP2
8881;SDS011;4477;48.736;9.176;2022-07-05T00:01:16;6.00;;;5.17;;
8881;SDS011;4477;48.736;9.176;2022-07-05T00:03:42;5.33;;;4.67;;
8881;SDS011;4477;48.736;9.176;2022-07-05T00:06:11;5.93;;;4.60;;
8881;SDS011;4477;48.736;9.176;2022-07-05T00:08:38;4.50;;;4.10;;
8881;SDS011;4477;48.736;9.176;2022-07-05T00:11:05;4.77;;;4.37;;
8881;SDS011;4477;48.736;9.176;2022-07-05T00:13:32;5.80;;;4.30;;
8881;SDS011;4477;48.736;9.176;2022-07-05T00:15:59;8.47;;;4.70;;
8881;SDS011;4477;48.736;9.176;2022-07-05T00:18:26;7.10;;;4.93;;
8881;SDS011;4477;48.736;9.176;2022-07-05T00:20:53;5.50;;;4.70;;
8881;SDS011;4477;48.736;9.176;2022-07-05T00:23:21;5.83;;;5.33;;
8881;SDS011;4477;48.736;9.176;2022-07-05T00:25:48;5.83;;;5.20;;
8881;SDS011;4477;48.736;9.176;2022-07-05T00:28:15;6.37;;;4.97;;
8881;SDS011;4477;48.736;9.176;2022-07-05T00:30:42;6.23;;;4.90;;
8881;SDS011;4477;48.736;9.176;2022-07-05T00:33:08;5.30;;;4.80;;
8881;SDS011;4477;48.736;9.176;2022-07-05T00:35:35;6.10;;;4.47;;
8881;SDS011;4477;48.736;9.176;2022-07-05T00:38:02;5.10;;;4.20;;
8881;SDS011;4477;48.736;9.176;2022-07-05T00:40:30;7.10;;;3.97;;
8881;SDS011;4477;48.736;9.176;2022-07-05T00:42:57;4.50;;;3.77;;
8881;SDS011;4477;48.736;9.176;2022-07-05T00:45:24;4.50;;;4.10;;
8881;SDS011;4477;48.736;9.176;2022-07-05T00:47:51;4.20;;;3.80;;
8881;SDS011;4477;48.736;9.176;2022-07-05T00:50:18;4.97;;;3.90;;
8881;SDS011;4477;48.736;9.176;2022-07-05T00:52:47;3.80;;;3.50;;
8881;SDS011;4477;48.736;9.176;2022-07-05T00:55:15;4.07;;;3.77;;
8881;SDS011;4477;48.736;9.176;2022-07-05T00:57:43;3.40;;;3.10;;
8881;SDS011;4477;48.736;9.176;2022-07-05T01:00:10;6.33;;;3.40;;
8881;SDS011;4477;48.736;9.176;2022-07-05T01:02:38;5.10;;;3.47;;
8881;SDS011;4477;48.736;9.176;2022-07-05T01:05:05;5.57;;;3.60;;
8881;SDS011;4477;48.736;9.176;2022-07-05T01:07:32;5.00;;;3.47;;
8881;SDS011;4477;48.736;9.176;2022-07-05T01:10:01;3.67;;;3.37;;
8881;SDS011;4477;48.736;9.176;2022-07-05T01:12:28;3.90;;;3.53;;
8881;SDS011;4477;48.736;9.176;2022-07-05T01:14:56;4.60;;;3.83;;
8881;SDS011;4477;48.736;9.176;2022-07-05T01:17:23;4.43;;;3.00;;
8881;SDS011;4477;48.736;9.176;2022-07-05T01:19:50;2.93;;;2.70;;
8881;SDS011;4477;48.736;9.176;2022-07-05T01:22:18;3.63;;;2.50;;
8881;SDS011;4477;48.736;9.176;2022-07-05T01:24:47;3.80;;;2.70;;
8881;SDS011;4477;48.736;9.176;2022-07-05T01:27:16;2.93;;;2.60;;
8881;SDS011;4477;48.736;9.176;2022-07-05T01:29:44;2.80;;;2.37;;
8881;SDS011;4477;48.736;9.176;2022-07-05T01:32:12;3.63;;;2.30;;
8881;SDS011;4477;48.736;9.176;2022-07-05T01:34:39;4.13;;;2.77;;
8881;SDS011;4477;48.736;9.176;2022-07-05T01:37:07;3.90;;;2.40;;
8881;SDS011;4477;48.736;9.176;2022-07-05T01:39:34;5.67;;;2.47;;
8881;SDS011;4477;48.736;9.176;2022-07-05T01:42:03;3.97;;;2.60;;
8881;SDS011;4477;48.736;9.176;2022-07-05T01:44:30;3.77;;;2.67;;
8881;SDS011;4477;48.736;9.176;2022-07-05T01:46:58;4.90;;;2.93;;
8881;SDS011;4477;48.736;9.176;2022-07-05T01:49:30;4.03;;;2.50;;
8881;SDS011;4477;48.736;9.176;2022-07-05T01:52:06;4.43;;;2.73;;
8881;SDS011;4477;48.736;9.176;2022-07-05T01:54:34;5.27;;;2.50;;
8881;SDS011;4477;48.736;9.176;2022-07-05T01:57:03;4.23;;;2.60;;
8881;SDS011;4477;48.736;9.176;2022-07-05T01:59:31;5.10;;;2.50;;
8881;SDS011;4477;48.736;9.176;2022-07-05T02:01:59;3.87;;;2.87;;
8881;SDS011;4477;48.736;9.176;2022-07-05T02:04:26;3.20;;;2.60;;
8881;SDS011;4477;48.736;9.176;2022-07-05T02:06:54;3.80;;;2.50;;
8881;SDS011;4477;48.736;9.176;2022-07-05T02:09:22;6.20;;;3.93;;
8881;SDS011;4477;48.736;9.176;2022-07-05T02:11:49;4.17;;;2.80;;
8881;SDS011;4477;48.736;9.176;2022-07-05T02:14:17;4.07;;;2.43;;
8881;SDS011;4477;48.736;9.176;2022-07-05T02:16:44;3.50;;;2.60;;
8881;SDS011;4477;48.736;9.176;2022-07-05T02:19:11;3.17;;;2.70;;
8881;SDS011;4477;48.736;9.176;2022-07-05T02:21:38;4.23;;;2.87;;
8881;SDS011;4477;48.736;9.176;2022-07-05T02:24:05;2.60;;;2.40;;
8881;SDS011;4477;48.736;9.176;2022-07-05T02:26:33;2.60;;;2.40;;
8881;SDS011;4477;48.736;9.176;2022-07-05T02:29:00;3.67;;;2.70;;
8881;SDS011;4477;48.736;9.176;2022-07-05T02:31:29;4.10;;;2.87;;
8881;SDS011;4477;48.736;9.176;2022-07-05T02:33:56;4.13;;;2.80;;
8881;SDS011;4477;48.736;9.176;2022-07-05T02:36:24;3.73;;;2.80;;
8881;SDS011;4477;48.736;9.176;2022-07-05T02:38:51;4.93;;;3.00;;
8881;SDS011;4477;48.736;9.176;2022-07-05T02:41:18;3.47;;;3.17;;
8881;SDS011;4477;48.736;9.176;2022-07-05T02:43:45;3.43;;;3.13;;
8881;SDS011;4477;48.736;9.176;2022-07-05T02:46:12;3.90;;;2.90;;
8881;SDS011;4477;48.736;9.176;2022-07-05T02:48:40;3.50;;;3.20;;
8881;SDS011;4477;48.736;9.176;2022-07-05T02:51:07;3.13;;;2.83;;
8881;SDS011;4477;48.736;9.176;2022-07-05T02:53:34;4.87;;;3.10;;
8881;SDS011;4477;48.736;9.176;2022-07-05T02:56:01;4.53;;;2.87;;
8881;SDS011;4477;48.736;9.176;2022-07-05T02:58:28;4.47;;;3.33;;
8881;SDS011;4477;48.736;9.176;2022-07-05T03:00:55;3.57;;;3.10;;
8881;SDS011;4477;48.736;9.176;2022-07-05T03:03:22;4.53;;;3.70;;
8881;SDS011;4477;48.736;9.176;2022-07-05T03:05:50;3.90;;;3.37;;
8881;SDS011;4477;48.736;9.176;2022-07-05T03:08:17;4.00;;;3.67;;
8881;SDS011;4477;48.736;9.176;2022-07-05T03:10:44;3.77;;;3.47;;
8881;SDS011;4477;48.736;9.176;2022-07-05T03:13:11;4.40;;;4.00;;
8881;SDS011;4477;48.736;9.176;2022-07-05T03:15:38;5.73;;;4.07;;
8881;SDS011;4477;48.736;9.176;2022-07-05T03:18:05;5.77;;;4.30;;
8881;SDS011;4477;48.736;9.176;2022-07-05T03:20:32;3.90;;;3.60;;
8881;SDS011;4477;48.736;9.176;2022-07-05T03:23:00;3.97;;;3.67;;
8881;SDS011;4477;48.736;9.176;2022-07-05T03:25:27;5.37;;;4.13;;
8881;SDS011;4477;48.736;9.176;2022-07-05T03:27:54;4.30;;;3.63;;
8881;SDS011;4477;48.736;9.176;2022-07-05T03:30:21;3.70;;;3.40;;
8881;SDS011;4477;48.736;9.176;2022-07-05T03:32:48;5.07;;;4.10;;
8881;SDS011;4477;48.736;9.176;2022-07-05T03:35:15;6.70;;;3.77;;
8881;SDS011;4477;48.736;9.176;2022-07-05T03:37:42;6.40;;;3.83;;
8881;SDS011;4477;48.736;9.176;2022-07-05T03:40:10;4.43;;;4.03;;
8881;SDS011;4477;48.736;9.176;2022-07-05T03:42:37;5.37;;;4.47;;
8881;SDS011;4477;48.736;9.176;2022-07-05T03:45:05;4.50;;;3.97;;
8881;SDS011;4477;48.736;9.176;2022-07-05T03:47:32;5.13;;;4.67;;
8881;SDS011;4477;48.736;9.176;2022-07-05T03:49:59;5.30;;;4.33;;
8881;SDS011;4477;48.736;9.176;2022-07-05T03:52:26;5.63;;;5.13;;
8881;SDS011;4477;48.736;9.176;2022-07-05T03:54:53;6.23;;;5.27;;
8881;SDS011;4477;48.736;9.176;2022-07-05T03:57:21;5.37;;;4.50;;
8881;SDS011;4477;48.736;9.176;2022-07-05T03:59:48;7.60;;;5.17;;
8881;SDS011;4477;48.736;9.176;2022-07-05T04:02:15;6.10;;;5.23;;
8881;SDS011;4477;48.736;9.176;2022-07-05T04:04:42;6.53;;;5.43;;
8881;SDS011;4477;48.736;9.176;2022-07-05T04:07:09;5.53;;;5.00;;
8881;SDS011;4477;48.736;9.176;2022-07-05T04:09:36;6.83;;;5.10;;
8881;SDS011;4477;48.736;9.176;2022-07-05T04:12:03;5.80;;;5.30;;
8881;SDS011;4477;48.736;9.176;2022-07-05T04:14:32;5.10;;;4.70;;
8881;SDS011;4477;48.736;9.176;2022-07-05T04:16:59;5.23;;;4.73;;
8881;SDS011;4477;48.736;9.176;2022-07-05T04:19:26;5.60;;;4.57;;
8881;SDS011;4477;48.736;9.176;2022-07-05T04:21:53;4.50;;;4.07;;
8881;SDS011;4477;48.736;9.176;2022-07-05T04:24:20;5.07;;;4.40;;
8881;SDS011;4477;48.736;9.176;2022-07-05T04:26:47;4.50;;;4.10;;
8881;SDS011;4477;48.736;9.176;2022-07-05T04:29:14;4.87;;;3.90;;
8881;SDS011;4477;48.736;9.176;2022-07-05T04:31:42;4.10;;;3.60;;
8881;SDS011;4477;48.736;9.176;2022-07-05T04:34:09;5.83;;;3.60;;
8881;SDS011;4477;48.736;9.176;2022-07-05T04:36:36;4.23;;;3.37;;
8881;SDS011;4477;48.736;9.176;2022-07-05T04:39:05;6.10;;;3.57;;
8881;SDS011;4477;48.736;9.176;2022-07-05T04:41:32;4.93;;;2.90;;
8881;SDS011;4477;48.736;9.176;2022-07-05T04:43:59;2.80;;;2.60;;
8881;SDS011;4477;48.736;9.176;2022-07-05T04:46:26;3.43;;;2.83;;
8881;SDS011;4477;48.736;9.176;2022-07-05T04:48:54;2.50;;;2.30;;
8881;SDS011;4477;48.736;9.176;2022-07-05T04:51:22;2.10;;;1.90;;
8881;SDS011;4477;48.736;9.176;2022-07-05T04:53:49;2.60;;;1.60;;
8881;SDS011;4477;48.736;9.176;2022-07-05T04:56:16;2.83;;;1.50;;
8881;SDS011;4477;48.736;9.176;2022-07-05T04:58:46;2.80;;;1.60;;
8881;SDS011;4477;48.736;9.176;2022-07-05T05:01:12;3.43;;;1.50;;
8881;SDS011;4477;48.736;9.176;2022-07-05T05:03:39;2.50;;;1.10;;
8881;SDS011;4477;48.736;9.176;2022-07-05T05:06:08;1.40;;;1.07;;
8881;SDS011;4477;48.736;9.176;2022-07-05T05:08:34;1.70;;;1.10;;
8881;SDS011;4477;48.736;9.176;2022-07-05T05:11:01;1.57;;;1.10;;
8881;SDS011;4477;48.736;9.176;2022-07-05T05:13:28;1.52;;;1.00;;
8881;SDS011;4477;48.736;9.176;2022-07-05T05:15:55;3.50;;;1.40;;
8881;SDS011;4477;48.736;9.176;2022-07-05T05:18:22;2.20;;;1.05;;
8881;SDS011;4477;48.736;9.176;2022-07-05T05:20:52;1.00;;;1.00;;
8881;SDS011;4477;48.736;9.176;2022-07-05T05:23:21;1.77;;;1.00;;
8881;SDS011;4477;48.736;9.176;2022-07-05T05:25:48;3.08;;;1.00;;
8881;SDS011;4477;48.736;9.176;2022-07-05T05:28:16;1.65;;;0.80;;
8881;SDS011;4477;48.736;9.176;2022-07-05T05:30:43;3.08;;;0.95;;
8881;SDS011;4477;48.736;9.176;2022-07-05T05:33:09;2.20;;;1.00;;
8881;SDS011;4477;48.736;9.176;2022-07-05T05:35:36;1.17;;;0.88;;
8881;SDS011;4477;48.736;9.176;2022-07-05T05:38:03;0.90;;;0.90;;
8881;SDS011;4477;48.736;9.176;2022-07-05T05:40:32;2.65;;;1.10;;
8881;SDS011;4477;48.736;9.176;2022-07-05T05:42:59;2.53;;;1.08;;
8881;SDS011;4477;48.736;9.176;2022-07-05T05:45:26;2.00;;;0.93;;
8881;SDS011;4477;48.736;9.176;2022-07-05T05:47:56;2.85;;;1.02;;
8881;SDS011;4477;48.736;9.176;2022-07-05T05:50:24;1.85;;;1.02;;
8881;SDS011;4477;48.736;9.176;2022-07-05T05:52:52;1.38;;;1.20;;
8881;SDS011;4477;48.736;9.176;2022-07-05T05:55:19;2.53;;;1.13;;
8881;SDS011;4477;48.736;9.176;2022-07-05T05:57:49;1.88;;;1.15;;
8881;SDS011;4477;48.736;9.176;2022-07-05T06:00:16;2.38;;;1.20;;
8881;SDS011;4477;48.736;9.176;2022-07-05T06:02:44;2.13;;;1.00;;
8881;SDS011;4477;48.736;9.176;2022-07-05T06:05:12;2.55;;;1.20;;
8881;SDS011;4477;48.736;9.176;2022-07-05T06:07:43;1.10;;;1.00;;
8881;SDS011;4477;48.736;9.176;2022-07-05T06:10:14;2.28;;;1.00;;
8881;SDS011;4477;48.736;9.176;2022-07-05T06:12:42;1.38;;;1.08;;
8881;SDS011;4477;48.736;9.176;2022-07-05T06:15:10;4.75;;;1.10;;
8881;SDS011;4477;48.736;9.176;2022-07-05T06:17:38;1.80;;;1.00;;
8881;SDS011;4477;48.736;9.176;2022-07-05T06:20:06;1.92;;;1.00;;
8881;SDS011;4477;48.736;9.176;2022-07-05T06:22:34;1.05;;;0.90;;
8881;SDS011;4477;48.736;9.176;2022-07-05T06:25:02;2.72;;;1.15;;
8881;SDS011;4477;48.736;9.176;2022-07-05T06:27:29;1.77;;;1.00;;
8881;SDS011;4477;48.736;9.176;2022-07-05T06:29:56;1.08;;;0.90;;
8881;SDS011;4477;48.736;9.176;2022-07-05T06:32:24;2.75;;;1.02;;
8881;SDS011;4477;48.736;9.176;2022-07-05T06:34:51;1.50;;;1.10;;
8881;SDS011;4477;48.736;9.176;2022-07-05T06:37:18;2.22;;;1.00;;
8881;SDS011;4477;48.736;9.176;2022-07-05T06:39:45;1.90;;;1.15;;
8881;SDS011;4477;48.736;9.176;2022-07-05T06:42:12;2.17;;;1.17;;
8881;SDS011;4477;48.736;9.176;2022-07-05T06:44:39;1.45;;;1.08;;
8881;SDS011;4477;48.736;9.176;2022-07-05T06:47:06;2.40;;;1.10;;
8881;SDS011;4477;48.736;9.176;2022-07-05T06:49:35;1.65;;;0.95;;
8881;SDS011;4477;48.736;9.176;2022-07-05T06:52:02;2.50;;;1.20;;
8881;SDS011;4477;48.736;9.176;2022-07-05T06:54:29;2.33;;;0.95;;
8881;SDS011;4477;48.736;9.176;2022-07-05T06:56:56;2.50;;;1.00;;
8881;SDS011;4477;48.736;9.176;2022-07-05T06:59:22;4.22;;;1.30;;
8881;SDS011;4477;48.736;9.176;2022-07-05T07:01:49;2.70;;;1.23;;
8881;SDS011;4477;48.736;9.176;2022-07-05T07:04:16;3.13;;;1.30;;
8881;SDS011;4477;48.736;9.176;2022-07-05T07:06:44;2.17;;;0.98;;
8881;SDS011;4477;48.736;9.176;2022-07-05T07:09:11;1.92;;;1.10;;
8881;SDS011;4477;48.736;9.176;2022-07-05T07:11:43;1.45;;;0.93;;
8881;SDS011;4477;48.736;9.176;2022-07-05T07:14:10;1.85;;;1.20;;
8881;SDS011;4477;48.736;9.176;2022-07-05T07:16:38;1.85;;;0.80;;
8881;SDS011;4477;48.736;9.176;2022-07-05T07:19:05;1.35;;;0.98;;
8881;SDS011;4477;48.736;9.176;2022-07-05T07:21:32;3.40;;;1.05;;
8881;SDS011;4477;48.736;9.176;2022-07-05T07:24:00;2.47;;;1.25;;
8881;SDS011;4477;48.736;9.176;2022-07-05T07:26:27;1.70;;;1.13;;
8881;SDS011;4477;48.736;9.176;2022-07-05T07:28:54;3.42;;;1.13;;
8881;SDS011;4477;48.736;9.176;2022-07-05T07:31:20;2.13;;;0.90;;
8881;SDS011;4477;48.736;9.176;2022-07-05T07:33:47;1.65;;;0.80;;
8881;SDS011;4477;48.736;9.176;2022-07-05T07:36:14;2.22;;;0.90;;
8881;SDS011;4477;48.736;9.176;2022-07-05T07:38:41;2.88;;;0.70;;
8881;SDS011;4477;48.736;9.176;2022-07-05T07:41:09;1.77;;;0.90;;
8881;SDS011;4477;48.736;9.176;2022-07-05T07:43:36;1.58;;;1.08;;
8881;SDS011;4477;48.736;9.176;2022-07-05T07:46:03;4.13;;;0.90;;
8881;SDS011;4477;48.736;9.176;2022-07-05T07:48:30;2.90;;;1.10;;
8881;SDS011;4477;48.736;9.176;2022-07-05T07:50:57;3.55;;;1.05;;
8881;SDS011;4477;48.736;9.176;2022-07-05T07:53:26;3.50;;;0.93;;
8881;SDS011;4477;48.736;9.176;2022-07-05T07:55:53;0.93;;;0.80;;
8881;SDS011;4477;48.736;9.176;2022-07-05T07:58:21;1.05;;;0.73;;
8881;SDS011;4477;48.736;9.176;2022-07-05T08:00:50;3.50;;;1.02;;
8881;SDS011;4477;48.736;9.176;2022-07-05T08:03:16;2.65;;;0.80;;
8881;SDS011;4477;48.736;9.176;2022-07-05T08:05:43;1.77;;;1.08;;
8881;SDS011;4477;48.736;9.176;2022-07-05T08:08:10;3.55;;;1.00;;
8881;SDS011;4477;48.736;9.176;2022-07-05T08:10:37;2.33;;;1.00;;
8881;SDS011;4477;48.736;9.176;2022-07-05T08:13:04;2.22;;;1.15;;
8881;SDS011;4477;48.736;9.176;2022-07-05T08:15:32;1.23;;;0.90;;
8881;SDS011;4477;48.736;9.176;2022-07-05T08:17:59;1.20;;;1.10;;
8881;SDS011;4477;48.736;9.176;2022-07-05T08:20:43;4.60;;;1.13;;
8881;SDS011;4477;48.736;9.176;2022-07-05T08:23:28;2.95;;;0.90;;
8881;SDS011;4477;48.736;9.176;2022-07-05T08:25:55;2.55;;;1.08;;
8881;SDS011;4477;48.736;9.176;2022-07-05T08:28:21;1.48;;;1.13;;
8881;SDS011;4477;48.736;9.176;2022-07-05T08:30:52;3.58;;;1.30;;
8881;SDS011;4477;48.736;9.176;2022-07-05T08:33:19;2.05;;;1.00;;
8881;SDS011;4477;48.736;9.176;2022-07-05T08:35:46;2.92;;;1.10;;
8881;SDS011;4477;48.736;9.176;2022-07-05T08:38:13;3.25;;;1.20;;
8881;SDS011;4477;48.736;9.176;2022-07-05T08:40:41;5.03;;;1.20;;
8881;SDS011;4477;48.736;9.176;2022-07-05T08:43:12;1.55;;;1.05;;
8881;SDS011;4477;48.736;9.176;2022-07-05T08:45:42;1.60;;;1.10;;
8881;SDS011;4477;48.736;9.176;2022-07-05T08:48:11;2.90;;;1.13;;
8881;SDS011;4477;48.736;9.176;2022-07-05T08:50:40;2.42;;;1.30;;
8881;SDS011;4477;48.736;9.176;2022-07-05T08:53:07;2.80;;;1.00;;
8881;SDS011;4477;48.736;9.176;2022-07-05T08:55:35;5.45;;;1.13;;
8881;SDS011;4477;48.736;9.176;2022-07-05T08:58:02;5.20;;;1.63;;
8881;SDS011;4477;48.736;9.176;2022-07-05T09:00:29;3.83;;;0.95;;
8881;SDS011;4477;48.736;9.176;2022-07-05T09:02:56;2.85;;;1.13;;
8881;SDS011;4477;48.736;9.176;2022-07-05T09:05:25;4.00;;;1.10;;
8881;SDS011;4477;48.736;9.176;2022-07-05T09:07:55;8.00;;;1.02;;
8881;SDS011;4477;48.736;9.176;2022-07-05T09:10:25;1.52;;;1.00;;
8881;SDS011;4477;48.736;9.176;2022-07-05T09:12:53;2.25;;;0.80;;
8881;SDS011;4477;48.736;9.176;2022-07-05T09:15:21;1.45;;;1.00;;
8881;SDS011;4477;48.736;9.176;2022-07-05T09:17:48;1.38;;;0.80;;
8881;SDS011;4477;48.736;9.176;2022-07-05T09:20:16;2.03;;;0.95;;
8881;SDS011;4477;48.736;9.176;2022-07-05T09:22:46;3.80;;;0.90;;
8881;SDS011;4477;48.736;9.176;2022-07-05T09:25:18;1.80;;;1.00;;
8881;SDS011;4477;48.736;9.176;2022-07-05T09:27:51;2.67;;;1.00;;
8881;SDS011;4477;48.736;9.176;2022-07-05T09:30:24;2.47;;;0.85;;
8881;SDS011;4477;48.736;9.176;2022-07-05T09:33:02;3.83;;;1.30;;
8881;SDS011;4477;48.736;9.176;2022-07-05T09:35:31;2.35;;;0.80;;
8881;SDS011;4477;48.736;9.176;2022-07-05T09:38:00;4.90;;;1.10;;
8881;SDS011;4477;48.736;9.176;2022-07-05T09:40:29;1.35;;;0.80;;
8881;SDS011;4477;48.736;9.176;2022-07-05T09:43:09;2.20;;;0.80;;
8881;SDS011;4477;48.736;9.176;2022-07-05T09:45:37;3.13;;;0.98;;
8881;SDS011;4477;48.736;9.176;2022-07-05T09:48:04;2.85;;;1.00;;
8881;SDS011;4477;48.736;9.176;2022-07-05T09:50:33;5.25;;;1.25;;
8881;SDS011;4477;48.736;9.176;2022-07-05T09:53:02;2.38;;;1.00;;
8881;SDS011;4477;48.736;9.176;2022-07-05T09:55:30;1.38;;;0.80;;
8881;SDS011;4477;48.736;9.176;2022-07-05T09:57:58;2.33;;;0.93;;
8881;SDS011;4477;48.736;9.176;2022-07-05T10:00:25;1.05;;;0.80;;
8881;SDS011;4477;48.736;9.176;2022-07-05T10:02:52;5.88;;;1.20;;
8881;SDS011;4477;48.736;9.176;2022-07-05T10:05:26;4.45;;;0.93;;
8881;SDS011;4477;48.736;9.176;2022-07-05T10:07:54;3.05;;;1.15;;
8881;SDS011;4477;48.736;9.176;2022-07-05T10:10:24;1.65;;;1.02;;
8881;SDS011;4477;48.736;9.176;2022-07-05T10:12:52;3.78;;;1.00;;
8881;SDS011;4477;48.736;9.176;2022-07-05T10:15:22;2.70;;;0.88;;
8881;SDS011;4477;48.736;9.176;2022-07-05T10:17:52;2.03;;;0.80;;
8881;SDS011;4477;48.736;9.176;2022-07-05T10:20:23;2.13;;;0.85;;
8881;SDS011;4477;48.736;9.176;2022-07-05T10:22:52;1.70;;;0.82;;
8881;SDS011;4477;48.736;9.176;2022-07-05T10:25:20;1.58;;;0.70;;
8881;SDS011;4477;48.736;9.176;2022-07-05T10:27:49;2.35;;;0.73;;
8881;SDS011;4477;48.736;9.176;2022-07-05T10:30:19;4.10;;;1.10;;
8881;SDS011;4477;48.736;9.176;2022-07-05T10:32:46;5.38;;;1.13;;
8881;SDS011;4477;48.736;9.176;2022-07-05T10:35:13;9.82;;;1.38;;
8881;SDS011;4477;48.736;9.176;2022-07-05T10:37:41;9.57;;;1.27;;
8881;SDS011;4477;48.736;9.176;2022-07-05T10:40:09;10.38;;;1.20;;
8881;SDS011;4477;48.736;9.176;2022-07-05T10:42:37;3.72;;;0.98;;
8881;SDS011;4477;48.736;9.176;2022-07-05T10:50:43;1.00;;;0.82;;
8881;SDS011;4477;48.736;9.176;2022-07-05T10:53:20;4.25;;;0.80;;
8881;SDS011;4477;48.736;9.176;2022-07-05T10:55:49;1.80;;;0.75;;
8881;SDS011;4477;48.736;9.176;2022-07-05T10:58:22;2.55;;;0.80;;
8881;SDS011;4477;48.736;9.176;2022-07-05T11:07:03;2.92;;;0.80;;
8881;SDS011;4477;48.736;9.176;2022-07-05T11:09:30;2.83;;;0.90;;
8881;SDS011;4477;48.736;9.176;2022-07-05T11:12:07;0.82;;;0.68;;
8881;SDS011;4477;48.736;9.176;2022-07-05T11:14:38;4.97;;;1.00;;
8881;SDS011;4477;48.736;9.176;2022-07-05T11:17:15;2.15;;;0.80;;
8881;SDS011;4477;48.736;9.176;2022-07-05T11:22:37;2.42;;;0.75;;
8881;SDS011;4477;48.736;9.176;2022-07-05T11:25:06;1.33;;;0.82;;
8881;SDS011;4477;48.736;9.176;2022-07-05T11:27:35;2.85;;;0.88;;
8881;SDS011;4477;48.736;9.176;2022-07-05T11:30:03;2.45;;;0.90;;
8881;SDS011;4477;48.736;9.176;2022-07-05T11:32:47;2.03;;;0.95;;
8881;SDS011;4477;48.736;9.176;2022-07-05T11:35:16;1.70;;;1.08;;
8881;SDS011;4477;48.736;9.176;2022-07-05T11:37:56;4.85;;;1.17;;
8881;SDS011;4477;48.736;9.176;2022-07-05T11:40:26;4.00;;;0.82;;
8881;SDS011;4477;48.736;9.176;2022-07-05T11:42:57;1.23;;;0.73;;
8881;SDS011;4477;48.736;9.176;2022-07-05T11:45:25;2.42;;;0.90;;
8881;SDS011;4477;48.736;9.176;2022-07-05T11:47:53;3.63;;;0.88;;
8881;SDS011;4477;48.736;9.176;2022-07-05T11:50:27;2.35;;;0.95;;
8881;SDS011;4477;48.736;9.176;2022-07-05T11:52:56;3.60;;;1.08;;
8881;SDS011;4477;48.736;9.176;2022-07-05T11:55:24;1.27;;;0.70;;
8881;SDS011;4477;48.736;9.176;2022-07-05T11:57:53;1.85;;;1.00;;
8881;SDS011;4477;48.736;9.176;2022-07-05T12:00:30;2.63;;;0.93;;
8881;SDS011;4477;48.736;9.176;2022-07-05T12:03:09;5.82;;;1.23;;
8881;SDS011;4477;48.736;9.176;2022-07-05T12:05:39;1.95;;;1.00;;
8881;SDS011;4477;48.736;9.176;2022-07-05T12:08:06;1.58;;;0.80;;
8881;SDS011;4477;48.736;9.176;2022-07-05T12:10:35;2.60;;;0.90;;
8881;SDS011;4477;48.736;9.176;2022-07-05T12:13:19;2.83;;;0.85;;
8881;SDS011;4477;48.736;9.176;2022-07-05T12:15:46;3.15;;;1.00;;
8881;SDS011;4477;48.736;9.176;2022-07-05T12:18:13;8.10;;;1.33;;
8881;SDS011;4477;48.736;9.176;2022-07-05T12:20:42;9.30;;;1.10;;
8881;SDS011;4477;48.736;9.176;2022-07-05T12:23:09;4.05;;;1.00;;
8881;SDS011;4477;48.736;9.176;2022-07-05T12:25:36;2.95;;;0.93;;
8881;SDS011;4477;48.736;9.176;2022-07-05T12:28:03;3.47;;;1.10;;
8881;SDS011;4477;48.736;9.176;2022-07-05T12:30:31;2.20;;;1.02;;
8881;SDS011;4477;48.736;9.176;2022-07-05T12:33:00;10.70;;;1.52;;
8881;SDS011;4477;48.736;9.176;2022-07-05T12:35:28;4.43;;;1.00;;
8881;SDS011;4477;48.736;9.176;2022-07-05T12:38:00;1.38;;;0.82;;
8881;SDS011;4477;48.736;9.176;2022-07-05T12:40:28;1.55;;;0.80;;
8881;SDS011;4477;48.736;9.176;2022-07-05T12:43:02;1.00;;;0.90;;
8881;SDS011;4477;48.736;9.176;2022-07-05T12:45:31;3.47;;;0.90;;
8881;SDS011;4477;48.736;9.176;2022-07-05T12:47:59;2.03;;;1.00;;
8881;SDS011;4477;48.736;9.176;2022-07-05T12:50:27;2.83;;;1.00;;
8881;SDS011;4477;48.736;9.176;2022-07-05T12:52:58;1.95;;;0.88;;
8881;SDS011;4477;48.736;9.176;2022-07-05T12:55:47;2.67;;;1.15;;
8881;SDS011;4477;48.736;9.176;2022-07-05T12:58:32;3.42;;;1.00;;
8881;SDS011;4477;48.736;9.176;2022-07-05T13:00:59;2.50;;;1.05;;
8881;SDS011;4477;48.736;9.176;2022-07-05T13:03:26;1.65;;;1.00;;
8881;SDS011;4477;48.736;9.176;2022-07-05T13:06:02;1.85;;;0.88;;
8881;SDS011;4477;48.736;9.176;2022-07-05T13:08:30;3.40;;;0.90;;
8881;SDS011;4477;48.736;9.176;2022-07-05T13:10:57;1.73;;;0.98;;
8881;SDS011;4477;48.736;9.176;2022-07-05T13:13:24;4.60;;;1.30;;
8881;SDS011;4477;48.736;9.176;2022-07-05T13:15:51;2.55;;;0.95;;
8881;SDS011;4477;48.736;9.176;2022-07-05T13:18:25;6.90;;;1.10;;
8881;SDS011;4477;48.736;9.176;2022-07-05T13:20:52;2.67;;;0.80;;
8881;SDS011;4477;48.736;9.176;2022-07-05T13:23:19;4.95;;;1.08;;
8881;SDS011;4477;48.736;9.176;2022-07-05T13:25:47;11.77;;;1.67;;
8881;SDS011;4477;48.736;9.176;2022-07-05T13:28:14;3.53;;;0.93;;
8881;SDS011;4477;48.736;9.176;2022-07-05T13:30:41;3.20;;;1.00;;
8881;SDS011;4477;48.736;9.176;2022-07-05T13:33:08;7.28;;;1.77;;
8881;SDS011;4477;48.736;9.176;2022-07-05T13:35:35;2.50;;;0.90;;
8881;SDS011;4477;48.736;9.176;2022-07-05T13:38:02;4.05;;;0.95;;
8881;SDS011;4477;48.736;9.176;2022-07-05T13:40:29;3.03;;;0.90;;
8881;SDS011;4477;48.736;9.176;2022-07-05T13:42:57;2.95;;;1.05;;
8881;SDS011;4477;48.736;9.176;2022-07-05T13:45:24;3.83;;;1.30;;
8881;SDS011;4477;48.736;9.176;2022-07-05T13:47:51;3.33;;;0.90;;
8881;SDS011;4477;48.736;9.176;2022-07-05T13:50:17;2.42;;;1.00;;
8881;SDS011;4477;48.736;9.176;2022-07-05T13:53:00;2.38;;;0.80;;
8881;SDS011;4477;48.736;9.176;2022-07-05T13:55:27;2.13;;;1.00;;
8881;SDS011;4477;48.736;9.176;2022-07-05T13:57:56;4.32;;;0.90;;
8881;SDS011;4477;48.736;9.176;2022-07-05T14:00:24;3.33;;;0.95;;
8881;SDS011;4477;48.736;9.176;2022-07-05T14:02:52;3.65;;;0.77;;
8881;SDS011;4477;48.736;9.176;2022-07-05T14:05:19;1.08;;;0.77;;
8881;SDS011;4477;48.736;9.176;2022-07-05T14:07:46;1.65;;;0.90;;
8881;SDS011;4477;48.736;9.176;2022-07-05T14:10:13;2.72;;;0.95;;
8881;SDS011;4477;48.736;9.176;2022-07-05T14:12:40;1.58;;;0.85;;
8881;SDS011;4477;48.736;9.176;2022-07-05T14:15:09;2.70;;;1.00;;
8881;SDS011;4477;48.736;9.176;2022-07-05T14:17:36;1.63;;;0.80;;
8881;SDS011;4477;48.736;9.176;2022-07-05T14:20:03;2.30;;;0.80;;
8881;SDS011;4477;48.736;9.176;2022-07-05T14:22:31;2.45;;;1.10;;
8881;SDS011;4477;48.736;9.176;2022-07-05T14:24:58;3.00;;;0.90;;
8881;SDS011;4477;48.736;9.176;2022-07-05T14:27:25;2.05;;;0.90;;
8881;SDS011;4477;48.736;9.176;2022-07-05T14:29:52;2.65;;;1.13;;
8881;SDS011;4477;48.736;9.176;2022-07-05T14:32:20;2.72;;;1.00;;
8881;SDS011;4477;48.736;9.176;2022-07-05T14:34:47;2.58;;;1.15;;
8881;SDS011;4477;48.736;9.176;2022-07-05T14:37:14;10.60;;;1.30;;
8881;SDS011;4477;48.736;9.176;2022-07-05T14:39:45;4.63;;;0.93;;
8881;SDS011;4477;48.736;9.176;2022-07-05T14:42:12;2.65;;;1.15;;
8881;SDS011;4477;48.736;9.176;2022-07-05T14:44:39;2.72;;;0.88;;
8881;SDS011;4477;48.736;9.176;2022-07-05T14:47:06;2.25;;;0.95;;
8881;SDS011;4477;48.736;9.176;2022-07-05T14:49:34;5.35;;;1.10;;
8881;SDS011;4477;48.736;9.176;2022-07-05T14:52:01;2.15;;;1.00;;
8881;SDS011;4477;48.736;9.176;2022-07-05T14:54:28;2.53;;;0.77;;
8881;SDS011;4477;48.736;9.176;2022-07-05T14:56:58;1.83;;;0.90;;
8881;SDS011;4477;48.736;9.176;2022-07-05T14:59:25;5.05;;;0.95;;
8881;SDS011;4477;48.736;9.176;2022-07-05T15:01:52;1.10;;;0.88;;
8881;SDS011;4477;48.736;9.176;2022-07-05T15:04:19;4.30;;;0.93;;
8881;SDS011;4477;48.736;9.176;2022-07-05T15:06:47;2.38;;;0.98;;
8881;SDS011;4477;48.736;9.176;2022-07-05T15:09:14;4.20;;;0.80;;
8881;SDS011;4477;48.736;9.176;2022-07-05T15:11:42;3.75;;;0.95;;
8881;SDS011;4477;48.736;9.176;2022-07-05T15:14:09;2.60;;;1.05;;
8881;SDS011;4477;48.736;9.176;2022-07-05T15:16:36;4.03;;;0.90;;
8881;SDS011;4477;48.736;9.176;2022-07-05T15:19:03;2.00;;;1.05;;
8881;SDS011;4477;48.736;9.176;2022-07-05T15:21:30;2.58;;;1.15;;
8881;SDS011;4477;48.736;9.176;2022-07-05T15:23:58;3.95;;;1.25;;
8881;SDS011;4477;48.736;9.176;2022-07-05T15:26:25;3.70;;;1.15;;
8881;SDS011;4477;48.736;9.176;2022-07-05T15:28:54;2.55;;;1.10;;
8881;SDS011;4477;48.736;9.176;2022-07-05T15:31:28;2.38;;;0.90;;
8881;SDS011;4477;48.736;9.176;2022-07-05T15:33:56;3.13;;;0.98;;
8881;SDS011;4477;48.736;9.176;2022-07-05T15:36:24;2.50;;;1.00;;